Portada
Imágenes satélite Pronóstico 10 díasClimaPredicción Marítima Ciclones Rayo AeropuertosFAQ Noticias Acerca
El tiempo : Europa África América del Norte América del Sur Asia Australia-Oceanía Otros
Idiomas Contacto

Buenos Aires, Argentina

Aeroparque Jorge Newbery

latitud: 34-34S, longitud: 058-25W, altitud: 6 m


METAR: SABE 041000Z 32005KT CAVOK 09/06 Q1023
TAF: SABE 040500Z 0406/0506 29005KT CAVOK TX16/0418Z TN09/0410Z BECMG 0416/0418 07010KT

Hora: 07:20 (10:20 UTC)

Observación

El informe se hizo hace 20 minutos, a las 10:00 UTC
Viento 5 kt del noroeste
Temperatura 9°C
Humedad 81%
Presión 1023 hPa
Visibilidad 10 km o más
sin nubes por debajo de 1500 m y sin presencia de cumulonimbus.

Cambiar las unidades

Pronóstico

El informe se hizo hace 5 horas y 20 minutos, a las 05:00 UTC
Pronóstico válido del 04 a las 06 UTC al 05 a las 06 UTC
Viento 5 kt del oeste-noroeste
Visibilidad 10 km o más
sin nubes por debajo de 1500 m y sin presencia de cumulonimbus.
Evolucionando progresivamente
del 04 a las 16 UTC al 04 a las 18 UTC
Viento 10 kt del este-noreste
La información que se ofrece en estas páginas está sujeta a una cláusula de exención de responsabilidad
El tiempo : Europa África América del Norte América del Sur Asia Australia-Oceanía Otros
Imágenes satélite Pronóstico 10 díasClimaPredicción Marítima Ciclones Rayo AeropuertosFAQ Idiomas Contacto Noticias Acerca